Time;durP1;ratioP1;P1;durP2;ratioP2;P2;SDS_P1;SDS_P2;PMS_P1;PMS_P2;Temp;Humidity;BMP_temperature;BMP_pressure;BME280_temperature;BME280_humidity;BME280_pressure;Samples;Min_cycle;Max_cycle;Signal;HPM_P1;HPM_P2
2022/11/28 00:01:44;;;;;;;7.03;6.10;;;6.10;99.90;;;;;;5033237;28;20402;-71
2022/11/28 00:04:11;;;;;;;6.85;6.18;;;6.10;99.90;;;;;;5032290;28;20452;-71
2022/11/28 00:06:39;;;;;;;8.18;6.70;;;6.10;99.90;;;;;;5030688;28;20391;-71
2022/11/28 00:09:05;;;;;;;7.78;6.88;;;6.10;99.90;;;;;;5032651;28;20391;-71
2022/11/28 00:11:31;;;;;;;8.87;6.50;;;6.20;99.90;;;;;;5033012;28;20406;-71
2022/11/28 00:13:56;;;;;;;7.37;6.33;;;6.20;99.90;;;;;;5031910;28;20391;-71
2022/11/28 00:16:23;;;;;;;7.03;6.33;;;6.30;99.90;;;;;;5032641;28;20407;-71
2022/11/28 00:18:53;;;;;;;7.15;6.45;;;6.20;99.90;;;;;;5015058;28;20395;-71
2022/11/28 00:21:20;;;;;;;6.90;6.15;;;6.20;99.90;;;;;;5032665;28;20817;-71
2022/11/28 00:23:47;;;;;;;7.30;6.50;;;6.10;99.90;;;;;;5031644;28;20462;-71
2022/11/28 00:26:24;;;;;;;6.18;5.57;;;6.10;99.90;;;;;;5032489;28;20386;-71
2022/11/28 00:28:50;;;;;;;6.55;5.47;;;6.20;99.90;;;;;;5032487;28;20457;-72
2022/11/28 00:31:18;;;;;;;6.68;6.03;;;6.20;99.90;;;;;;5014804;28;20395;-72
2022/11/28 00:33:44;;;;;;;8.27;6.33;;;6.20;99.90;;;;;;5013920;28;20395;-72
2022/11/28 00:36:10;;;;;;;6.93;6.00;;;6.20;99.90;;;;;;5031534;28;20410;-72
2022/11/28 00:38:36;;;;;;;7.13;6.30;;;6.20;99.90;;;;;;5015356;28;20788;-72
2022/11/28 00:41:05;;;;;;;7.67;6.37;;;6.20;99.90;;;;;;5052298;28;20378;-72
2022/11/28 00:43:30;;;;;;;6.65;6.00;;;6.30;99.90;;;;;;5033573;28;20476;-72
2022/11/28 00:45:56;;;;;;;6.80;6.10;;;6.10;99.90;;;;;;5052134;28;20485;-72
2022/11/28 00:48:22;;;;;;;6.63;5.93;;;6.20;99.90;;;;;;5052271;28;20400;-72
2022/11/28 00:50:48;;;;;;;7.10;6.40;;;6.30;99.90;;;;;;5051899;28;20420;-72
2022/11/28 00:53:14;;;;;;;6.63;6.03;;;6.20;99.90;;;;;;5051375;28;20431;-72
2022/11/28 00:55:39;;;;;;;7.10;6.10;;;6.20;99.90;;;;;;5051714;28;20413;-71
2022/11/28 00:58:05;;;;;;;6.50;5.63;;;6.20;99.90;;;;;;5051764;28;20382;-71
2022/11/28 01:00:31;;;;;;;6.20;5.60;;;6.30;99.90;;;;;;5074951;22;20511;-71
2022/11/28 01:02:57;;;;;;;6.30;5.50;;;6.20;99.90;;;;;;5051365;28;20761;-71
2022/11/28 01:05:22;;;;;;;6.68;5.97;;;6.30;99.90;;;;;;5051945;28;20473;-70
2022/11/28 01:07:48;;;;;;;7.00;6.07;;;6.30;99.90;;;;;;5051856;28;20808;-70
2022/11/28 01:10:14;;;;;;;6.85;5.65;;;6.30;99.90;;;;;;5051719;28;20447;-71
2022/11/28 01:12:39;;;;;;;6.95;5.97;;;6.40;99.90;;;;;;5049870;28;20392;-70
2022/11/28 01:15:07;;;;;;;7.15;6.55;;;6.40;99.90;;;;;;5051681;28;20381;-71
2022/11/28 01:17:33;;;;;;;6.95;6.20;;;6.40;99.90;;;;;;5051765;28;20393;-71
2022/11/28 01:19:58;;;;;;;6.10;5.50;;;6.40;99.90;;;;;;5051569;28;20382;-71
2022/11/28 01:22:24;;;;;;;7.23;5.90;;;6.40;99.90;;;;;;5051403;28;20405;-70
2022/11/28 01:24:49;;;;;;;6.30;5.70;;;6.40;99.90;;;;;;5051237;28;20386;-70
2022/11/28 01:27:15;;;;;;;5.30;4.80;;;6.40;99.90;;;;;;5051577;28;20464;-70
2022/11/28 01:29:40;;;;;;;6.17;4.80;;;6.60;99.90;;;;;;5051573;28;20389;-71
2022/11/28 01:32:06;;;;;;;5.38;4.55;;;6.60;99.90;;;;;;5051580;28;20385;-71
2022/11/28 01:34:31;;;;;;;4.53;4.13;;;6.60;99.90;;;;;;5050648;28;20382;-70
2022/11/28 01:36:58;;;;;;;5.15;4.43;;;6.50;99.90;;;;;;5051370;28;20492;-70
2022/11/28 01:39:24;;;;;;;4.95;4.55;;;6.50;99.90;;;;;;5051267;28;20389;-71
2022/11/28 01:41:50;;;;;;;5.80;5.20;;;6.50;99.90;;;;;;5050111;28;20395;-71
2022/11/28 01:44:15;;;;;;;5.00;4.50;;;6.40;99.90;;;;;;5050533;28;20436;-71
2022/11/28 01:46:41;;;;;;;5.63;4.77;;;6.40;99.90;;;;;;5051220;28;20439;-69
2022/11/28 01:49:19;;;;;;;5.70;5.10;;;6.40;99.90;;;;;;5050315;28;20413;-70
2022/11/28 01:51:49;;;;;;;5.82;5.22;;;6.10;99.90;;;;;;5051205;28;20397;-71
2022/11/28 01:54:19;;;;;;;5.35;4.60;;;6.10;99.90;;;;;;5050568;28;20413;-71
2022/11/28 01:57:01;;;;;;;5.80;5.30;;;6.20;99.90;;;;;;5051242;28;20446;-71
2022/11/28 01:59:31;;;;;;;6.60;5.00;;;6.20;99.90;;;;;;5051364;28;20950;-71
2022/11/28 02:01:57;;;;;;;6.32;5.57;;;6.20;99.90;;;;;;5051680;28;20382;-71
2022/11/28 02:04:26;;;;;;;5.73;5.23;;;6.20;99.90;;;;;;5050835;28;20435;-71
2022/11/28 02:06:52;;;;;;;5.90;5.10;;;6.10;99.90;;;;;;5051392;28;20914;-71
2022/11/28 02:09:18;;;;;;;5.93;5.32;;;6.00;99.90;;;;;;5049761;28;20432;-71
2022/11/28 02:11:43;;;;;;;5.80;5.20;;;6.00;99.90;;;;;;5050945;28;20797;-71
2022/11/28 02:14:36;;;;;;;6.45;5.50;;;6.00;99.90;;;;;;5050157;28;20452;-71
2022/11/28 02:17:18;;;;;;;5.38;4.60;;;5.90;99.90;;;;;;5050805;28;20409;-71
2022/11/28 02:20:21;;;;;;;7.60;5.72;;;5.90;99.90;;;;;;5050944;28;20878;-70
2022/11/28 02:23:07;;;;;;;6.28;5.40;;;6.00;99.90;;;;;;5050045;28;20443;-71
2022/11/28 02:26:01;;;;;;;5.37;4.87;;;6.00;99.90;;;;;;5050658;28;20392;-70
2022/11/28 02:28:47;;;;;;;5.65;5.10;;;6.00;99.90;;;;;;5050706;28;20411;-70
2022/11/28 02:31:34;;;;;;;6.17;5.10;;;6.00;99.90;;;;;;5050496;28;20438;-71
2022/11/28 02:34:25;;;;;;;5.18;4.57;;;6.00;99.90;;;;;;5049866;28;20404;-71
2022/11/28 02:37:00;;;;;;;5.32;4.82;;;6.00;99.90;;;;;;5021638;28;20432;-71
2022/11/28 02:39:47;;;;;;;5.50;4.90;;;6.10;99.90;;;;;;5050321;28;20784;-71
2022/11/28 02:42:25;;;;;;;5.35;4.75;;;6.10;99.90;;;;;;5032461;28;20914;-71
2022/11/28 02:45:08;;;;;;;5.47;4.97;;;6.10;99.90;;;;;;5049992;28;20442;-71
2022/11/28 02:47:43;;;;;;;5.68;5.18;;;6.10;99.90;;;;;;5050281;28;20476;-71
2022/11/28 02:50:18;;;;;;;7.03;5.60;;;6.20;99.90;;;;;;5050362;28;20860;-71
2022/11/28 02:52:59;;;;;;;6.00;5.40;;;6.20;99.90;;;;;;5049484;28;20396;-71
2022/11/28 02:55:25;;;;;;;5.82;5.25;;;6.10;99.90;;;;;;5050188;28;20413;-72
2022/11/28 02:57:53;;;;;;;8.85;5.88;;;6.10;99.90;;;;;;5050260;28;20396;-71
2022/11/28 03:00:28;;;;;;;5.60;5.10;;;6.10;99.90;;;;;;5054107;28;20914;-71
2022/11/28 03:03:18;;;;;;;6.72;5.55;;;6.10;99.90;;;;;;5056036;28;20389;-71
2022/11/28 03:05:52;;;;;;;6.07;5.38;;;6.00;99.90;;;;;;5057031;28;20741;-71
2022/11/28 03:08:45;;;;;;;6.88;5.07;;;6.10;99.90;;;;;;5056677;28;20403;-71
2022/11/28 03:11:41;;;;;;;6.50;5.57;;;6.10;99.90;;;;;;5056700;28;20388;-71
2022/11/28 03:14:29;;;;;;;5.75;5.03;;;6.10;99.90;;;;;;5034575;28;20403;-71
2022/11/28 03:17:16;;;;;;;6.00;5.00;;;6.10;99.90;;;;;;5036618;28;20584;-71
2022/11/28 03:19:52;;;;;;;5.65;4.90;;;6.20;99.90;;;;;;5035465;28;20394;-71
2022/11/28 03:22:31;;;;;;;5.30;4.78;;;6.00;99.90;;;;;;5036666;28;20389;-71
2022/11/28 03:25:23;;;;;;;6.97;5.70;;;6.00;99.90;;;;;;5036457;28;20387;-71
2022/11/28 03:27:54;;;;;;;5.78;5.00;;;6.00;99.90;;;;;;5036629;28;20390;-71
2022/11/28 03:30:32;;;;;;;5.47;4.97;;;6.00;99.90;;;;;;5036750;28;20395;-71
2022/11/28 03:33:00;;;;;;;5.78;4.88;;;6.00;99.90;;;;;;5035971;28;20383;-71
2022/11/28 03:35:31;;;;;;;5.80;5.30;;;6.00;99.90;;;;;;5035345;28;20430;-71
2022/11/28 03:38:03;;;;;;;6.22;5.32;;;6.00;99.90;;;;;;5036635;28;20382;-72
2022/11/28 03:40:34;;;;;;;5.22;4.72;;;6.00;99.90;;;;;;5052750;28;20381;-71
2022/11/28 03:43:09;;;;;;;6.28;4.40;;;6.00;99.90;;;;;;5055847;28;20424;-71
2022/11/28 03:45:40;;;;;;;5.55;4.47;;;5.90;99.90;;;;;;5056501;28;20384;-71
2022/11/28 03:48:36;;;;;;;5.72;4.53;;;6.00;99.90;;;;;;5056366;28;20889;-71
2022/11/28 03:51:05;;;;;;;5.15;4.65;;;6.00;99.90;;;;;;5050099;28;20878;-70
2022/11/28 03:53:55;;;;;;;5.72;4.20;;;6.00;99.90;;;;;;5055611;28;20430;-71
2022/11/28 03:56:46;;;;;;;4.30;3.90;;;6.00;99.90;;;;;;5045435;28;20424;-70
2022/11/28 03:59:19;;;;;;;4.80;4.30;;;5.90;99.90;;;;;;5056464;28;20438;-71
2022/11/28 04:02:10;;;;;;;5.43;3.90;;;6.00;99.90;;;;;;5056425;28;20400;-71
2022/11/28 04:05:00;;;;;;;5.30;4.20;;;5.90;99.90;;;;;;5055521;28;20381;-71
2022/11/28 04:07:29;;;;;;;4.55;3.58;;;5.80;99.90;;;;;;5056281;28;20480;-71
2022/11/28 04:10:02;;;;;;;4.07;3.53;;;5.80;99.90;;;;;;5056279;28;20388;-70
2022/11/28 04:12:56;;;;;;;4.50;4.10;;;5.90;99.90;;;;;;5052120;28;20426;-72
2022/11/28 04:15:40;;;;;;;4.78;3.30;;;5.90;99.90;;;;;;5053305;28;21019;-71
2022/11/28 04:18:27;;;;;;;3.53;3.20;;;5.90;99.90;;;;;;5052723;28;20389;-71
2022/11/28 04:21:15;;;;;;;3.20;3.00;;;5.90;99.90;;;;;;5053036;28;20396;-72
2022/11/28 04:23:43;;;;;;;4.00;3.60;;;5.90;99.90;;;;;;5052104;28;20501;-71
2022/11/28 04:26:19;;;;;;;3.90;3.60;;;5.80;99.90;;;;;;5052593;28;20389;-71
2022/11/28 04:28:48;;;;;;;3.70;3.30;;;5.80;99.90;;;;;;5052838;28;20389;-71
2022/11/28 04:31:16;;;;;;;3.42;2.63;;;5.90;99.90;;;;;;5052863;28;20385;-71
2022/11/28 04:33:46;;;;;;;3.60;3.20;;;5.90;99.90;;;;;;5051870;28;20472;-72
2022/11/28 04:36:15;;;;;;;3.35;3.05;;;5.90;99.90;;;;;;5034799;28;20479;-71
2022/11/28 04:38:43;;;;;;;3.70;3.30;;;5.90;99.90;;;;;;5052595;28;20868;-72
2022/11/28 04:41:19;;;;;;;3.63;3.20;;;5.90;99.90;;;;;;5052631;28;20397;-72
2022/11/28 04:43:56;;;;;;;3.85;2.72;;;5.90;99.90;;;;;;5051900;28;20455;-72
2022/11/28 04:46:27;;;;;;;3.30;3.00;;;5.80;99.90;;;;;;5052497;28;20443;-72
2022/11/28 04:48:53;;;;;;;4.00;3.30;;;5.80;99.90;;;;;;5052573;28;20378;-71
2022/11/28 04:51:29;;;;;;;3.08;2.60;;;5.70;99.90;;;;;;5052467;28;20473;-72
2022/11/28 04:54:05;;;;;;;3.25;2.95;;;5.70;99.90;;;;;;5051750;28;20386;-72
2022/11/28 04:56:44;;;;;;;3.50;3.10;;;5.70;99.90;;;;;;5052401;28;20495;-71
2022/11/28 04:59:12;;;;;;;3.05;2.70;;;5.60;99.90;;;;;;5052249;28;20389;-71
2022/11/28 05:01:40;;;;;;;3.00;2.70;;;5.70;99.90;;;;;;5052236;28;20393;-72
2022/11/28 05:04:06;;;;;;;3.70;2.70;;;5.70;99.90;;;;;;5051496;28;20421;-72
2022/11/28 05:06:34;;;;;;;2.90;2.70;;;5.70;99.90;;;;;;5052249;28;20389;-72
2022/11/28 05:09:00;;;;;;;3.90;2.40;;;5.60;99.90;;;;;;5052152;28;20377;-72
2022/11/28 05:11:26;;;;;;;2.97;2.50;;;5.60;99.90;;;;;;5052116;28;20495;-72
2022/11/28 05:13:52;;;;;;;3.10;2.83;;;5.60;99.90;;;;;;5051309;28;20495;-72
2022/11/28 05:16:18;;;;;;;2.83;2.50;;;5.60;99.90;;;;;;5052041;28;20406;-72
2022/11/28 05:18:44;;;;;;;2.60;2.30;;;5.60;99.90;;;;;;5051996;28;20373;-72
2022/11/28 05:21:10;;;;;;;3.50;2.80;;;5.60;99.90;;;;;;5051880;28;20392;-71
2022/11/28 05:23:41;;;;;;;4.43;2.58;;;5.50;99.90;;;;;;5050993;28;20898;-72
2022/11/28 05:26:12;;;;;;;2.50;2.30;;;5.50;99.90;;;;;;5051881;28;20393;-72
2022/11/28 05:28:38;;;;;;;3.00;2.20;;;5.50;99.90;;;;;;5051751;28;20480;-72
2022/11/28 05:31:04;;;;;;;4.43;2.20;;;5.60;99.90;;;;;;5051860;28;20835;-72
2022/11/28 05:33:30;;;;;;;2.80;2.50;;;5.50;99.90;;;;;;5051005;28;20960;-71
2022/11/28 05:36:04;;;;;;;2.97;2.50;;;5.50;99.90;;;;;;5048767;28;20409;-71
2022/11/28 05:38:31;;;;;;;3.10;2.47;;;5.60;99.90;;;;;;5048870;28;20455;-72
2022/11/28 05:40:58;;;;;;;2.55;2.35;;;5.70;99.90;;;;;;5046970;28;20921;-72
2022/11/28 05:43:24;;;;;;;2.90;2.60;;;5.70;99.90;;;;;;5050673;28;20933;-71
2022/11/28 05:45:50;;;;;;;2.97;2.60;;;5.60;99.90;;;;;;5047328;28;20479;-72
2022/11/28 05:48:15;;;;;;;2.90;2.50;;;5.70;99.90;;;;;;5046044;28;20818;-70
2022/11/28 05:50:41;;;;;;;2.70;2.40;;;5.80;99.90;;;;;;5048676;28;20451;-72
2022/11/28 05:53:07;;;;;;;3.10;2.47;;;5.70;99.90;;;;;;5042824;28;20417;-72
2022/11/28 05:55:33;;;;;;;3.40;2.50;;;5.70;99.90;;;;;;5041247;28;20417;-72
2022/11/28 05:57:58;;;;;;;4.07;2.40;;;5.70;99.90;;;;;;5046062;28;20393;-72
2022/11/28 06:00:24;;;;;;;6.10;3.30;;;5.80;99.90;;;;;;5045028;28;20449;-71
2022/11/28 06:02:50;;;;;;;3.77;2.90;;;5.80;99.90;;;;;;5037007;28;20922;-72
2022/11/28 06:05:15;;;;;;;3.13;2.60;;;5.80;99.90;;;;;;5045622;28;20453;-71
2022/11/28 06:07:41;;;;;;;2.83;2.53;;;5.80;99.90;;;;;;5030851;28;20536;-71
2022/11/28 06:10:07;;;;;;;4.10;2.67;;;5.80;99.90;;;;;;5031932;28;20393;-72
2022/11/28 06:12:32;;;;;;;3.77;2.20;;;5.90;99.90;;;;;;5048325;28;20496;-69
2022/11/28 06:14:58;;;;;;;5.60;2.10;;;5.90;99.90;;;;;;5047638;28;20939;-72
2022/11/28 06:17:24;;;;;;;2.50;2.30;;;5.90;99.90;;;;;;5050204;28;20409;-73
2022/11/28 06:19:49;;;;;;;4.60;2.47;;;6.00;99.90;;;;;;5042199;28;20516;-72
2022/11/28 06:22:15;;;;;;;4.17;2.53;;;6.10;99.90;;;;;;5042219;28;20776;-72
2022/11/28 06:24:40;;;;;;;2.70;2.50;;;6.10;99.90;;;;;;5044354;28;20401;-71
2022/11/28 06:27:06;;;;;;;2.03;1.90;;;6.20;99.90;;;;;;5043892;28;20415;-72
2022/11/28 06:29:31;;;;;;;2.30;2.10;;;6.20;99.90;;;;;;5047754;28;20487;-72
2022/11/28 06:31:58;;;;;;;2.90;2.60;;;6.20;99.90;;;;;;5046704;28;20496;-72
2022/11/28 06:34:23;;;;;;;3.20;2.80;;;6.30;99.90;;;;;;5046383;28;20404;-72
2022/11/28 06:36:49;;;;;;;2.60;2.40;;;6.30;99.90;;;;;;5033904;28;20415;-71
2022/11/28 06:39:16;;;;;;;2.50;2.30;;;6.30;99.90;;;;;;5044897;28;20420;-72
2022/11/28 06:41:42;;;;;;;2.90;2.40;;;6.30;99.90;;;;;;5039363;28;20409;-71
2022/11/28 06:44:12;;;;;;;2.70;2.50;;;6.40;99.90;;;;;;5045148;28;20412;-72
2022/11/28 06:46:37;;;;;;;3.75;1.98;;;6.40;99.90;;;;;;5043051;28;20896;-72
2022/11/28 06:49:03;;;;;;;5.13;2.50;;;6.50;99.90;;;;;;5049079;28;20398;-73
2022/11/28 06:51:28;;;;;;;4.23;2.10;;;6.50;99.90;;;;;;5049102;28;20393;-72
2022/11/28 06:53:54;;;;;;;3.50;2.70;;;6.70;99.90;;;;;;5048912;28;21043;-72
2022/11/28 06:56:21;;;;;;;3.10;2.80;;;6.70;99.90;;;;;;5047234;28;20420;-72
2022/11/28 06:58:52;;;;;;;2.42;2.22;;;6.70;99.90;;;;;;5047685;28;20394;-72
2022/11/28 07:01:20;;;;;;;4.30;2.47;;;6.70;99.90;;;;;;5076295;22;20431;-71
2022/11/28 07:03:47;;;;;;;2.47;2.20;;;6.70;99.90;;;;;;5041020;28;20412;-71
2022/11/28 07:06:15;;;;;;;2.70;2.30;;;6.70;99.90;;;;;;5057281;28;20439;-71
2022/11/28 07:08:41;;;;;;;4.32;2.58;;;6.70;99.90;;;;;;5064161;28;20420;-70
2022/11/28 07:11:27;;;;;;;2.27;2.07;;;6.70;99.90;;;;;;5056178;28;20524;-71
2022/11/28 07:13:55;;;;;;;2.10;1.90;;;6.80;99.90;;;;;;5042133;28;20444;-71
2022/11/28 07:16:23;;;;;;;2.00;1.80;;;6.80;99.90;;;;;;5046985;28;20425;-71
2022/11/28 07:18:49;;;;;;;11.52;7.18;;;7.00;99.90;;;;;;5046727;28;20887;-71
2022/11/28 07:21:15;;;;;;;4.15;3.10;;;7.00;99.90;;;;;;5043905;28;20567;-71
2022/11/28 07:23:42;;;;;;;4.43;2.35;;;6.90;99.90;;;;;;5040703;28;20393;-71
2022/11/28 07:26:10;;;;;;;4.18;2.40;;;6.90;99.90;;;;;;5048609;28;20408;-72
2022/11/28 07:28:36;;;;;;;2.78;2.00;;;6.90;99.90;;;;;;5049726;28;20431;-71
2022/11/28 07:31:16;;;;;;;2.60;2.30;;;7.10;99.90;;;;;;5048352;28;21085;-71
2022/11/28 07:33:45;;;;;;;2.40;2.00;;;7.10;99.90;;;;;;5047549;28;20392;-71
2022/11/28 07:36:13;;;;;;;2.20;2.00;;;7.20;99.90;;;;;;5048610;28;20401;-70
2022/11/28 07:38:38;;;;;;;2.70;1.70;;;7.10;99.90;;;;;;5047448;28;20863;-71
2022/11/28 07:41:12;;;;;;;2.40;2.20;;;7.30;99.90;;;;;;5027987;28;20436;-71
2022/11/28 07:43:39;;;;;;;3.00;1.70;;;7.30;99.90;;;;;;5010021;28;20391;-71
2022/11/28 07:46:06;;;;;;;2.72;1.98;;;7.40;99.90;;;;;;5011830;28;20426;-71
2022/11/28 07:48:32;;;;;;;2.63;1.70;;;7.40;99.90;;;;;;5033855;28;20391;-71
2022/11/28 07:50:58;;;;;;;3.45;2.10;;;7.50;99.90;;;;;;5033695;28;20386;-71
2022/11/28 07:53:24;;;;;;;3.10;1.60;;;7.70;99.90;;;;;;5033060;28;21012;-71
2022/11/28 07:55:49;;;;;;;2.03;1.77;;;7.90;99.90;;;;;;5033567;28;20411;-70
2022/11/28 07:58:15;;;;;;;2.00;1.80;;;8.00;99.90;;;;;;5033704;28;20375;-70
2022/11/28 08:00:41;;;;;;;2.10;1.90;;;8.00;99.90;;;;;;5033355;28;20480;-71
2022/11/28 08:03:06;;;;;;;3.33;1.80;;;8.30;99.90;;;;;;5032926;28;20485;-72
2022/11/28 08:05:32;;;;;;;2.10;1.60;;;9.20;99.90;;;;;;5033625;28;20383;-72
2022/11/28 08:07:58;;;;;;;1.50;1.40;;;9.80;99.90;;;;;;5033549;28;20418;-72
2022/11/28 08:10:23;;;;;;;3.53;2.10;;;10.10;99.90;;;;;;5015534;28;20395;-72
2022/11/28 08:12:53;;;;;;;3.40;1.27;;;10.30;99.90;;;;;;5032915;28;20433;-72
2022/11/28 08:15:19;;;;;;;2.40;1.30;;;10.70;98.30;;;;;;5033581;28;20383;-72
2022/11/28 08:17:44;;;;;;;3.10;1.50;;;10.90;97.60;;;;;;5033283;28;20951;-71
2022/11/28 08:20:13;;;;;;;2.25;1.60;;;10.80;97.80;;;;;;5033415;28;20445;-72
2022/11/28 08:22:47;;;;;;;4.15;1.73;;;10.80;96.90;;;;;;5015073;28;20391;-72
2022/11/28 08:25:15;;;;;;;2.00;1.60;;;10.90;96.40;;;;;;5033282;28;20386;-73
2022/11/28 08:27:43;;;;;;;3.78;1.48;;;10.90;96.60;;;;;;5033190;28;20387;-72
2022/11/28 08:30:09;;;;;;;2.45;1.70;;;10.90;96.30;;;;;;5015236;28;20915;-72
2022/11/28 08:32:37;;;;;;;4.35;2.10;;;10.90;95.70;;;;;;5032312;28;20387;-72
2022/11/28 08:35:13;;;;;;;;;;;;;;;;;;;;;
2022/11/28 08:37:38;;;;;;;3.08;1.35;;;11.10;95.10;;;;;;5033227;28;20888;-72
2022/11/28 08:40:05;;;;;;;7.10;2.33;;;11.00;95.10;;;;;;5027611;28;20390;-72
2022/11/28 08:42:38;;;;;;;6.00;1.83;;;10.90;96.70;;;;;;5052337;28;20387;-71
2022/11/28 08:45:05;;;;;;;2.70;1.48;;;10.90;95.10;;;;;;5052588;28;20378;-72
2022/11/28 08:47:31;;;;;;;2.60;1.40;;;10.80;95.80;;;;;;5034873;28;20397;-72
2022/11/28 08:49:57;;;;;;;2.30;1.50;;;10.80;96.60;;;;;;5052589;28;20397;-72
2022/11/28 08:52:23;;;;;;;2.90;1.40;;;10.90;95.70;;;;;;5052493;28;20907;-71
2022/11/28 08:54:49;;;;;;;2.00;1.50;;;11.00;94.40;;;;;;5052272;28;20443;-72
2022/11/28 08:57:14;;;;;;;2.20;1.40;;;10.90;95.50;;;;;;5052037;28;20409;-72
2022/11/28 08:59:40;;;;;;;1.37;1.27;;;10.90;94.80;;;;;;5052692;28;20481;-72
2022/11/28 09:02:05;;;;;;;1.63;1.40;;;11.00;95.00;;;;;;5114598;22;20463;-72
2022/11/28 09:04:31;;;;;;;2.10;1.60;;;10.90;95.50;;;;;;5071616;28;20741;-72
2022/11/28 09:06:56;;;;;;;2.00;1.40;;;10.90;94.70;;;;;;5072234;28;20432;-72
2022/11/28 09:09:22;;;;;;;2.70;1.60;;;11.10;94.00;;;;;;5072547;28;20775;-71
2022/11/28 09:11:50;;;;;;;1.80;1.30;;;11.10;94.50;;;;;;5072132;28;20412;-71
2022/11/28 09:14:15;;;;;;;1.90;1.30;;;11.10;94.90;;;;;;5053814;28;20448;-71
2022/11/28 09:16:41;;;;;;;3.75;1.40;;;11.10;94.70;;;;;;5071190;28;20399;-71
2022/11/28 09:19:08;;;;;;;1.80;1.30;;;11.20;93.90;;;;;;5071152;28;20384;-71
2022/11/28 09:21:40;;;;;;;1.13;1.00;;;11.20;94.00;;;;;;5108739;22;20457;-71
2022/11/28 09:24:33;;;;;;;2.35;1.45;;;11.30;94.00;;;;;;5072225;28;20470;-71
2022/11/28 09:27:01;;;;;;;1.80;1.60;;;11.10;95.00;;;;;;5054718;28;20420;-71
2022/11/28 09:29:28;;;;;;;2.10;1.40;;;11.30;96.70;;;;;;5072080;28;20379;-71
2022/11/28 09:31:53;;;;;;;2.70;1.50;;;11.10;95.20;;;;;;5071933;28;20383;-71
2022/11/28 09:34:22;;;;;;;1.90;1.40;;;11.10;95.10;;;;;;5071374;28;20375;-71
2022/11/28 09:36:48;;;;;;;2.58;1.50;;;11.00;95.50;;;;;;5071958;28;20407;-71
2022/11/28 09:39:15;;;;;;;2.97;1.70;;;11.10;95.60;;;;;;5053924;28;20474;-71
2022/11/28 09:42:02;;;;;;;2.28;1.40;;;11.00;97.60;;;;;;5071800;28;20387;-71
2022/11/28 09:44:43;;;;;;;2.10;1.50;;;11.10;97.60;;;;;;5071295;28;20477;-71
2022/11/28 09:47:39;;;;;;;1.90;1.70;;;11.20;98.50;;;;;;5072106;28;20416;-71
2022/11/28 09:50:24;;;;;;;3.10;1.70;;;11.20;99.40;;;;;;5071760;28;20383;-71
2022/11/28 09:53:29;;;;;;;1.60;1.42;;;11.10;99.90;;;;;;5070846;28;20387;-71
2022/11/28 09:56:13;;;;;;;1.60;1.50;;;11.10;99.90;;;;;;5053508;28;20403;-71
2022/11/28 09:58:47;;;;;;;2.60;1.45;;;11.00;99.90;;;;;;5070630;28;21460;-71
2022/11/28 10:01:22;;;;;;;3.60;1.48;;;10.90;99.90;;;;;;5071122;28;20394;-72
2022/11/28 10:04:24;;;;;;;3.00;1.70;;;10.80;99.90;;;;;;5070639;28;20416;-71
2022/11/28 10:07:25;;;;;;;1.80;1.70;;;10.80;99.90;;;;;;5038982;28;20396;-71
2022/11/28 10:09:58;;;;;;;2.20;1.58;;;10.60;99.90;;;;;;5070219;28;20391;-71
2022/11/28 10:12:58;;;;;;;1.70;1.53;;;10.70;99.90;;;;;;5070578;28;20387;-70
2022/11/28 10:15:38;;;;;;;2.65;1.50;;;10.50;99.90;;;;;;5070832;28;20380;-71
2022/11/28 10:18:22;;;;;;;3.70;2.03;;;10.40;99.90;;;;;;5070755;28;20402;-71
2022/11/28 10:20:56;;;;;;;2.72;1.67;;;10.30;99.90;;;;;;5070875;28;20372;-71
2022/11/28 10:23:29;;;;;;;1.83;1.67;;;10.00;99.90;;;;;;5069964;28;20400;-71
2022/11/28 10:26:14;;;;;;;2.25;1.58;;;9.90;99.90;;;;;;5070906;28;20467;-71
2022/11/28 10:28:45;;;;;;;2.60;1.70;;;10.00;99.90;;;;;;5070707;28;20398;-71
2022/11/28 10:31:32;;;;;;;2.50;1.70;;;10.00;99.90;;;;;;5070596;28;20883;-71
2022/11/28 10:34:44;;;;;;;3.90;3.00;;;9.90;99.90;;;;;;5051868;28;20392;-71
2022/11/28 10:37:27;;;;;;;6.97;4.22;;;9.80;99.90;;;;;;5059906;28;20473;-72
2022/11/28 10:39:54;;;;;;;8.40;6.82;;;9.70;99.90;;;;;;5070489;28;20384;-71
2022/11/28 10:43:05;;;;;;;7.18;6.47;;;9.70;99.90;;;;;;5070558;28;20380;-71
2022/11/28 10:46:01;;;;;;;6.72;6.07;;;9.70;99.90;;;;;;5067392;28;20388;-71
2022/11/28 10:48:50;;;;;;;5.90;4.90;;;9.70;99.90;;;;;;5070580;28;20443;-71
2022/11/28 10:51:33;;;;;;;4.60;3.10;;;9.70;99.90;;;;;;5070232;28;20399;-71
2022/11/28 10:54:22;;;;;;;3.58;2.80;;;9.70;99.90;;;;;;5070235;28;20368;-72
2022/11/28 10:56:48;;;;;;;3.00;2.63;;;9.60;99.90;;;;;;5070514;28;20395;-71
2022/11/28 10:59:38;;;;;;;2.70;2.23;;;9.60;99.90;;;;;;5070664;28;20376;-71
2022/11/28 11:02:28;;;;;;;3.25;2.00;;;9.60;99.90;;;;;;5070669;28;20379;-72
2022/11/28 11:04:54;;;;;;;3.80;2.22;;;9.60;99.90;;;;;;5070480;28;20391;-71
2022/11/28 11:07:28;;;;;;;3.92;2.20;;;9.70;99.90;;;;;;5070958;28;20379;-71
2022/11/28 11:09:54;;;;;;;2.63;2.30;;;9.70;99.90;;;;;;5071109;28;20384;-71
2022/11/28 11:12:25;;;;;;;2.70;2.38;;;9.70;99.90;;;;;;5070305;28;20422;-71
2022/11/28 11:14:51;;;;;;;3.15;2.38;;;9.60;99.90;;;;;;5070089;28;20380;-71
2022/11/28 11:17:24;;;;;;;2.97;2.40;;;9.60;99.90;;;;;;5070053;28;20484;-71
2022/11/28 11:19:50;;;;;;;3.67;2.95;;;9.60;99.90;;;;;;5070194;28;20723;-71
2022/11/28 11:22:27;;;;;;;2.50;2.30;;;9.60;99.90;;;;;;5073670;28;20398;-71
2022/11/28 11:25:11;;;;;;;3.20;2.10;;;9.60;99.90;;;;;;5072712;28;20391;-71
2022/11/28 11:27:45;;;;;;;2.42;2.08;;;9.50;99.90;;;;;;5074109;28;20375;-72
2022/11/28 11:30:34;;;;;;;2.95;2.38;;;9.60;99.90;;;;;;5074073;28;20395;-71
2022/11/28 11:33:02;;;;;;;2.60;2.20;;;9.40;99.90;;;;;;5073047;28;20474;-71
2022/11/28 11:35:33;;;;;;;2.80;2.38;;;9.50;99.90;;;;;;5073986;28;20386;-72
2022/11/28 11:38:29;;;;;;;6.32;2.42;;;9.40;99.90;;;;;;5072574;28;20506;-71
2022/11/28 11:40:55;;;;;;;4.80;2.63;;;9.40;99.90;;;;;;5053926;28;20411;-71
2022/11/28 11:43:29;;;;;;;3.88;2.63;;;9.50;99.90;;;;;;5035118;28;20440;-71
2022/11/28 11:46:21;;;;;;;2.55;2.20;;;9.50;99.90;;;;;;5053770;28;20382;-71
2022/11/28 11:48:50;;;;;;;3.10;2.70;;;9.40;99.90;;;;;;5051875;28;20806;-72
2022/11/28 11:51:27;;;;;;;2.87;2.67;;;9.50;99.90;;;;;;5053680;28;20389;-71
2022/11/28 11:54:04;;;;;;;3.78;2.83;;;9.70;99.90;;;;;;5052772;28;20389;-71
2022/11/28 11:56:35;;;;;;;3.05;2.85;;;9.80;99.90;;;;;;5035813;28;20417;-71
2022/11/28 11:59:06;;;;;;;5.40;3.13;;;9.80;99.90;;;;;;5035659;28;20385;-71
2022/11/28 12:01:33;;;;;;;4.28;2.80;;;9.70;99.90;;;;;;5053500;28;20868;-72
2022/11/28 12:04:03;;;;;;;4.30;2.90;;;9.70;99.90;;;;;;5052627;28;20377;-71
2022/11/28 12:06:35;;;;;;;4.10;2.80;;;9.60;99.90;;;;;;5053405;28;20389;-71
2022/11/28 12:09:26;;;;;;;3.30;2.63;;;9.60;99.90;;;;;;5053181;28;20394;-72
2022/11/28 12:11:58;;;;;;;4.22;2.80;;;9.70;99.90;;;;;;5052108;28;20385;-71
2022/11/28 12:14:32;;;;;;;3.33;2.60;;;9.70;99.90;;;;;;5063125;28;20453;-72
2022/11/28 12:17:16;;;;;;;3.50;3.20;;;9.70;99.90;;;;;;5073141;28;20412;-71
2022/11/28 12:20:06;;;;;;;2.80;2.60;;;9.80;99.90;;;;;;5073215;28;20383;-71
2022/11/28 12:22:53;;;;;;;2.80;2.60;;;9.70;99.90;;;;;;5071607;28;20449;-70
2022/11/28 12:25:47;;;;;;;4.18;2.50;;;9.70;99.90;;;;;;5073089;28;20382;-71
2022/11/28 12:28:39;;;;;;;3.95;2.55;;;9.80;99.90;;;;;;5072945;28;20738;-71
2022/11/28 12:31:42;;;;;;;2.90;2.60;;;9.90;99.90;;;;;;5034926;28;20419;-72
2022/11/28 12:34:39;;;;;;;3.20;2.57;;;9.80;99.90;;;;;;5071606;28;20864;-72
2022/11/28 12:37:08;;;;;;;3.80;2.97;;;9.80;99.90;;;;;;5072891;28;20400;-71
2022/11/28 12:39:51;;;;;;;5.65;3.40;;;9.70;99.90;;;;;;5072630;28;20448;-71
2022/11/28 12:42:26;;;;;;;3.40;3.10;;;9.70;99.90;;;;;;5072744;28;20376;-71
2022/11/28 12:45:12;;;;;;;3.30;2.90;;;9.80;99.90;;;;;;5072237;28;20483;-71
2022/11/28 12:48:12;;;;;;;4.00;3.20;;;9.70;99.90;;;;;;5054613;28;20414;-72
2022/11/28 12:50:44;;;;;;;4.60;3.80;;;9.70;99.90;;;;;;5072557;28;20388;-72
2022/11/28 12:53:12;;;;;;;5.80;3.70;;;9.70;99.90;;;;;;5071681;28;20469;-72
2022/11/28 12:56:03;;;;;;;5.55;3.83;;;9.70;99.90;;;;;;5072355;28;20384;-72
2022/11/28 12:58:47;;;;;;;4.43;3.85;;;9.60;99.90;;;;;;5072490;28;20384;-72
2022/11/28 13:01:36;;;;;;;4.65;4.22;;;9.60;99.90;;;;;;5072485;28;20379;-72
2022/11/28 13:04:31;;;;;;;3.88;2.38;;;9.50;99.90;;;;;;5071770;28;20436;-72
2022/11/28 13:07:29;;;;;;;4.63;2.80;;;9.50;99.90;;;;;;5072395;28;20383;-72
2022/11/28 13:10:00;;;;;;;3.45;2.40;;;9.50;99.90;;;;;;5054056;28;20399;-72
2022/11/28 13:12:32;;;;;;;3.60;2.80;;;9.50;99.90;;;;;;5072063;28;20386;-71
2022/11/28 13:15:07;;;;;;;2.38;2.17;;;9.60;99.90;;;;;;5072214;28;20395;-72
2022/11/28 13:17:42;;;;;;;3.03;2.53;;;9.50;99.90;;;;;;5066565;28;20419;-72
2022/11/28 13:20:15;;;;;;;4.60;3.13;;;9.50;99.90;;;;;;5040234;28;20485;-72
2022/11/28 13:23:15;;;;;;;4.72;3.10;;;9.50;99.90;;;;;;5058677;28;20405;-72
2022/11/28 13:26:09;;;;;;;4.05;3.20;;;9.50;99.90;;;;;;5056974;28;20492;-71
2022/11/28 13:28:51;;;;;;;4.43;3.20;;;9.60;99.90;;;;;;5051986;28;20941;-72